Time;durP1;ratioP1;P1;durP2;ratioP2;P2;SDS_P1;SDS_P2;PMS_P1;PMS_P2;Temp;Humidity;BMP_temperature;BMP_pressure;BME280_temperature;BME280_humidity;BME280_pressure;Samples;Min_cycle;Max_cycle;Signal;HPM_P1;HPM_P2
2022/12/08 00:01:37;;;;;;;6.30;1.35;;;3.00;99.90;;;;;;5067938;28;20880;-77
2022/12/08 00:04:04;;;;;;;6.80;1.40;;;3.30;99.90;;;;;;5076635;28;20483;-73
2022/12/08 00:09:30;;;;;;;5.63;1.00;;;3.20;99.90;;;;;;5069658;28;20422;-74
2022/12/08 00:11:59;;;;;;;6.78;1.05;;;3.30;99.90;;;;;;5048089;28;20447;-74
2022/12/08 00:14:29;;;;;;;5.65;1.05;;;3.30;99.90;;;;;;5057625;28;20450;-74
2022/12/08 00:16:56;;;;;;;5.40;1.00;;;3.40;99.90;;;;;;5070511;28;20421;-74
2022/12/08 00:19:23;;;;;;;7.10;1.53;;;3.60;99.90;;;;;;5049465;28;20455;-75
2022/12/08 00:21:48;;;;;;;2.77;0.87;;;3.40;99.90;;;;;;5081491;28;20413;-76
2022/12/08 00:24:14;;;;;;;5.03;1.08;;;3.70;99.90;;;;;;5070968;28;20453;-74
2022/12/08 00:26:40;;;;;;;6.72;0.90;;;3.50;99.90;;;;;;5075883;28;20422;-73
2022/12/08 00:29:06;;;;;;;7.13;1.30;;;3.70;99.90;;;;;;5062428;28;20437;-74
2022/12/08 00:31:31;;;;;;;4.70;0.90;;;3.50;99.90;;;;;;5062517;28;20438;-74
2022/12/08 00:33:57;;;;;;;2.80;1.10;;;3.70;99.90;;;;;;5067604;28;20433;-74
2022/12/08 00:36:23;;;;;;;3.15;0.60;;;3.50;99.90;;;;;;5086634;28;20418;-74
2022/12/08 00:38:49;;;;;;;5.07;1.33;;;3.20;99.90;;;;;;5051036;28;20522;-74
2022/12/08 00:42:10;;;;;;;4.73;1.07;;;3.00;99.90;;;;;;5048361;28;21036;-75
2022/12/08 00:44:07;;;;;;;3.63;0.70;;;3.00;99.90;;;;;;5083623;28;20432;-74
2022/12/08 00:46:34;;;;;;;4.70;0.97;;;2.80;99.90;;;;;;5069870;28;20951;-74
2022/12/08 00:49:00;;;;;;;4.28;1.13;;;2.90;99.90;;;;;;5052125;28;20437;-74
2022/12/08 00:51:25;;;;;;;4.57;0.60;;;3.20;99.90;;;;;;5081037;28;20455;-74
2022/12/08 00:53:51;;;;;;;2.78;0.75;;;3.00;99.90;;;;;;5071264;28;20452;-73
2022/12/08 00:56:16;;;;;;;3.42;0.70;;;3.00;99.90;;;;;;5070462;28;20421;-73
2022/12/08 00:58:42;;;;;;;2.05;0.70;;;2.90;99.90;;;;;;5068705;28;20430;-75
2022/12/08 01:01:13;;;;;;;4.50;0.95;;;2.80;99.90;;;;;;5069827;28;20513;-74
2022/12/08 01:03:39;;;;;;;4.93;0.80;;;3.10;99.90;;;;;;5068709;28;20438;-74
2022/12/08 01:06:05;;;;;;;2.85;1.05;;;3.10;99.90;;;;;;5070496;28;20464;-74
2022/12/08 01:08:31;;;;;;;3.30;1.00;;;2.70;99.90;;;;;;5088050;28;20410;-73
2022/12/08 01:11:03;;;;;;;3.22;0.52;;;3.10;99.90;;;;;;5051562;28;20402;-75
2022/12/08 01:13:28;;;;;;;3.37;0.80;;;3.10;99.90;;;;;;5075951;28;20471;-74
2022/12/08 01:15:54;;;;;;;2.03;0.40;;;3.00;99.90;;;;;;5086825;28;20504;-73
2022/12/08 01:18:20;;;;;;;4.47;0.80;;;2.70;99.90;;;;;;5052061;28;20969;-74
2022/12/08 01:20:45;;;;;;;2.07;0.50;;;3.10;99.90;;;;;;5088193;28;20402;-75
2022/12/08 01:23:11;;;;;;;2.73;0.50;;;3.10;99.90;;;;;;5088007;28;20471;-74
2022/12/08 01:25:37;;;;;;;3.30;0.57;;;2.90;99.90;;;;;;5069435;28;20689;-73
2022/12/08 01:28:02;;;;;;;3.63;0.80;;;2.90;99.90;;;;;;5086428;28;20402;-73
2022/12/08 01:30:28;;;;;;;2.73;0.70;;;3.00;99.90;;;;;;5058364;28;20410;-73
2022/12/08 01:32:54;;;;;;;3.03;0.63;;;2.80;99.90;;;;;;5071987;28;20783;-74
2022/12/08 01:35:19;;;;;;;2.80;0.50;;;2.70;99.90;;;;;;5087349;28;20465;-75
2022/12/08 01:37:45;;;;;;;2.90;0.77;;;2.90;99.90;;;;;;5069082;28;21095;-73
2022/12/08 01:40:11;;;;;;;4.00;1.17;;;2.80;99.90;;;;;;5069141;28;20422;-74
2022/12/08 01:42:37;;;;;;;3.30;0.60;;;3.10;99.90;;;;;;5069426;28;20434;-73
2022/12/08 01:45:23;;;;;;;4.22;0.98;;;3.10;99.90;;;;;;5086147;28;20929;-73
2022/12/08 01:47:54;;;;;;;1.75;0.40;;;2.90;99.90;;;;;;5087553;28;20398;-75
2022/12/08 01:50:20;;;;;;;3.25;0.52;;;2.80;99.90;;;;;;5086350;28;20908;-75
2022/12/08 01:52:56;;;;;;;3.65;0.63;;;2.80;99.90;;;;;;5070998;28;20466;-73
2022/12/08 01:55:30;;;;;;;3.72;0.40;;;3.10;99.90;;;;;;5056398;28;20416;-74
2022/12/08 01:58:01;;;;;;;3.40;0.50;;;2.90;99.90;;;;;;5070308;28;21018;-74
2022/12/08 02:00:27;;;;;;;4.65;0.75;;;2.90;99.90;;;;;;5072351;28;20457;-72
2022/12/08 02:03:03;;;;;;;3.90;0.40;;;3.00;99.90;;;;;;5090731;28;20452;-74
2022/12/08 02:05:36;;;;;;;7.03;0.55;;;2.60;99.90;;;;;;5087866;28;20421;-73
2022/12/08 02:08:07;;;;;;;4.20;0.70;;;3.00;99.90;;;;;;5073496;28;20413;-74
2022/12/08 02:10:35;;;;;;;4.25;0.68;;;2.60;99.90;;;;;;5087725;28;20423;-74
2022/12/08 02:13:03;;;;;;;7.32;1.00;;;2.90;99.90;;;;;;5078395;28;20420;-74
2022/12/08 02:15:38;;;;;;;3.58;0.60;;;2.90;99.90;;;;;;5090264;28;20406;-75
2022/12/08 02:18:26;;;;;;;4.95;1.10;;;2.50;99.90;;;;;;5072529;28;20430;-74
2022/12/08 02:20:57;;;;;;;3.42;0.65;;;2.70;99.90;;;;;;5055195;28;20506;-74
2022/12/08 02:23:50;;;;;;;2.80;0.40;;;2.50;99.90;;;;;;5053333;28;20414;-75
2022/12/08 02:26:40;;;;;;;4.90;1.00;;;2.70;99.90;;;;;;5029658;28;20414;-74
2022/12/08 02:29:27;;;;;;;2.53;0.70;;;2.90;99.90;;;;;;5086614;28;20755;-74
2022/12/08 02:32:34;;;;;;;2.77;0.40;;;2.80;99.90;;;;;;5068432;28;20418;-74
2022/12/08 02:35:30;;;;;;;4.50;1.20;;;2.60;99.90;;;;;;5060443;28;20433;-74
2022/12/08 02:38:23;;;;;;;3.60;0.67;;;2.70;99.90;;;;;;5014402;28;20515;-73
2022/12/08 02:40:52;;;;;;;3.63;0.73;;;2.90;99.90;;;;;;5069435;28;20463;-75
2022/12/08 02:43:44;;;;;;;3.22;0.60;;;2.60;99.90;;;;;;5088720;28;20733;-75
2022/12/08 02:46:21;;;;;;;1.50;0.30;;;2.60;99.90;;;;;;5065309;28;20498;-74
2022/12/08 02:48:47;;;;;;;2.75;0.40;;;2.80;99.90;;;;;;5070416;28;20431;-75
2022/12/08 02:51:12;;;;;;;1.53;0.30;;;3.10;99.90;;;;;;5086714;28;20970;-75
2022/12/08 02:53:39;;;;;;;0.83;0.30;;;2.80;99.90;;;;;;5088792;28;20414;-74
2022/12/08 02:56:22;;;;;;;5.72;0.60;;;2.60;99.90;;;;;;5054629;28;20426;-74
2022/12/08 02:59:15;;;;;;;3.85;0.50;;;3.00;99.90;;;;;;5077490;28;20425;-76
2022/12/08 03:02:08;;;;;;;2.67;0.65;;;2.90;99.90;;;;;;5069982;28;20479;-75
2022/12/08 03:04:56;;;;;;;4.65;0.75;;;2.40;99.90;;;;;;5070126;28;20430;-75
2022/12/08 03:07:30;;;;;;;2.80;0.75;;;2.50;99.90;;;;;;5065065;28;20426;-75
2022/12/08 03:10:19;;;;;;;1.20;0.20;;;2.50;99.90;;;;;;5075708;28;20467;-75
2022/12/08 03:12:57;;;;;;;1.50;0.10;;;2.40;99.90;;;;;;5086212;28;20430;-74
2022/12/08 03:15:23;;;;;;;1.17;0.30;;;2.30;99.90;;;;;;5055928;28;20784;-74
2022/12/08 03:17:59;;;;;;;1.30;0.20;;;2.40;99.90;;;;;;5086690;28;20429;-75
2022/12/08 03:20:28;;;;;;;1.50;0.20;;;2.10;99.90;;;;;;5068382;28;20505;-74
2022/12/08 03:22:57;;;;;;;1.40;0.10;;;2.00;99.90;;;;;;5086719;28;20949;-75
2022/12/08 03:25:26;;;;;;;2.00;0.25;;;2.10;99.90;;;;;;5086147;28;20417;-74
2022/12/08 03:27:52;;;;;;;1.08;0.10;;;1.90;99.90;;;;;;5059304;28;20489;-74
2022/12/08 03:30:18;;;;;;;1.50;0.25;;;1.80;99.90;;;;;;5065851;28;20424;-75
2022/12/08 03:33:03;;;;;;;1.60;0.30;;;2.00;99.90;;;;;;5069239;28;20437;-74
2022/12/08 03:35:32;;;;;;;2.25;0.28;;;2.10;99.90;;;;;;5051731;28;20812;-74
2022/12/08 03:38:07;;;;;;;2.20;0.20;;;1.70;99.90;;;;;;5070522;28;20433;-74
2022/12/08 03:40:33;;;;;;;1.83;0.33;;;2.10;99.90;;;;;;5084411;28;20826;-74
2022/12/08 03:42:59;;;;;;;1.25;0.30;;;1.90;99.90;;;;;;5072413;28;20426;-74
2022/12/08 03:45:25;;;;;;;2.78;0.32;;;1.70;99.90;;;;;;5086083;28;20410;-75
2022/12/08 03:47:51;;;;;;;2.42;0.30;;;2.10;99.90;;;;;;5073461;28;20418;-74
2022/12/08 03:50:16;;;;;;;2.33;0.38;;;2.10;99.90;;;;;;5067224;28;20430;-74
2022/12/08 03:52:42;;;;;;;2.37;0.23;;;1.80;99.90;;;;;;5071775;28;20788;-75
2022/12/08 03:55:08;;;;;;;2.73;0.37;;;2.10;99.90;;;;;;5082520;28;20522;-75
2022/12/08 03:57:34;;;;;;;2.03;0.20;;;1.70;99.90;;;;;;5075309;28;20421;-74
2022/12/08 03:59:59;;;;;;;2.10;0.50;;;1.90;99.90;;;;;;5068834;28;20628;-74
2022/12/08 04:02:25;;;;;;;2.70;0.50;;;2.00;99.90;;;;;;5088071;28;20432;-74
2022/12/08 04:04:51;;;;;;;2.20;0.27;;;1.90;99.90;;;;;;5057836;28;20476;-75
2022/12/08 04:07:16;;;;;;;1.13;0.20;;;2.00;99.90;;;;;;5080842;28;20420;-75
2022/12/08 04:09:43;;;;;;;2.10;0.50;;;1.80;99.90;;;;;;5069770;28;20429;-74
2022/12/08 04:12:09;;;;;;;4.55;1.67;;;2.10;99.90;;;;;;5088549;28;20749;-75
2022/12/08 04:14:35;;;;;;;12.18;3.88;;;1.70;99.90;;;;;;5085846;28;20489;-75
2022/12/08 04:17:00;;;;;;;10.63;4.00;;;2.10;99.90;;;;;;5068026;28;20431;-74
2022/12/08 04:19:26;;;;;;;9.18;2.88;;;2.20;99.90;;;;;;5087127;28;20450;-74
2022/12/08 04:21:52;;;;;;;16.05;5.78;;;1.90;99.90;;;;;;5088130;28;20406;-74
2022/12/08 04:24:17;;;;;;;14.10;5.22;;;2.10;99.90;;;;;;5070434;28;20413;-75
2022/12/08 04:26:43;;;;;;;6.80;2.27;;;2.10;99.90;;;;;;5088414;28;20923;-75
2022/12/08 04:29:09;;;;;;;2.30;0.98;;;1.90;99.90;;;;;;5051787;28;20402;-75
2022/12/08 04:31:34;;;;;;;7.27;2.23;;;1.80;99.90;;;;;;5084652;28;20406;-73
2022/12/08 04:34:00;;;;;;;4.77;1.47;;;1.90;99.90;;;;;;5067618;28;20426;-75
2022/12/08 04:36:26;;;;;;;5.57;1.37;;;1.60;99.90;;;;;;5078998;28;20465;-75
2022/12/08 04:38:51;;;;;;;2.03;0.80;;;1.90;99.90;;;;;;5063909;28;20430;-75
2022/12/08 04:41:17;;;;;;;3.30;1.20;;;2.10;99.90;;;;;;5067424;28;20753;-75
2022/12/08 04:43:43;;;;;;;2.77;1.00;;;1.80;99.90;;;;;;5083729;28;20460;-75
2022/12/08 04:46:09;;;;;;;2.50;1.10;;;1.80;99.90;;;;;;5083877;28;20525;-76
2022/12/08 04:48:37;;;;;;;2.95;0.55;;;1.80;99.90;;;;;;5084653;28;20426;-75
2022/12/08 04:51:03;;;;;;;2.40;1.15;;;1.90;99.90;;;;;;5076733;28;20733;-74
2022/12/08 04:53:28;;;;;;;2.77;1.00;;;1.90;99.90;;;;;;5075396;28;20735;-75
2022/12/08 04:55:54;;;;;;;2.13;0.50;;;1.50;99.90;;;;;;5072949;28;20414;-75
2022/12/08 04:58:20;;;;;;;1.00;0.30;;;1.60;99.90;;;;;;5082281;28;20812;-74
2022/12/08 05:00:46;;;;;;;2.78;0.90;;;1.70;99.90;;;;;;5085444;28;20439;-75
2022/12/08 05:03:12;;;;;;;3.67;2.13;;;1.90;99.90;;;;;;5084664;28;21070;-74
2022/12/08 05:05:39;;;;;;;2.15;1.15;;;1.90;99.90;;;;;;5070175;28;20510;-75
2022/12/08 05:08:05;;;;;;;3.40;1.20;;;1.60;99.90;;;;;;5073342;28;20483;-75
2022/12/08 05:10:31;;;;;;;1.40;1.13;;;1.60;99.90;;;;;;5084407;28;20422;-74
2022/12/08 05:12:58;;;;;;;3.50;0.80;;;1.90;99.90;;;;;;5083236;28;20825;-74
2022/12/08 05:15:24;;;;;;;3.05;1.10;;;2.00;99.90;;;;;;5054025;28;20754;-75
2022/12/08 05:17:49;;;;;;;4.57;1.97;;;2.10;99.90;;;;;;5083519;28;20452;-75
2022/12/08 05:20:15;;;;;;;3.73;1.80;;;2.10;99.90;;;;;;5067813;28;20429;-74
2022/12/08 05:22:41;;;;;;;3.67;1.30;;;2.20;99.90;;;;;;5081494;28;20437;-74
2022/12/08 05:25:07;;;;;;;1.80;0.97;;;1.90;99.90;;;;;;5082966;28;20501;-74
2022/12/08 05:27:33;;;;;;;1.77;0.63;;;2.30;99.90;;;;;;5053998;28;20452;-75
2022/12/08 05:29:58;;;;;;;1.90;0.60;;;2.30;99.90;;;;;;5062986;28;20450;-74
2022/12/08 05:32:24;;;;;;;1.47;0.60;;;2.00;99.90;;;;;;5088616;28;20527;-75
2022/12/08 05:34:50;;;;;;;3.70;2.23;;;2.30;99.90;;;;;;5068664;28;20521;-75
2022/12/08 05:37:16;;;;;;;2.65;1.55;;;2.00;99.90;;;;;;5082797;28;20450;-75
2022/12/08 05:39:41;;;;;;;1.77;1.05;;;2.10;99.90;;;;;;5083157;28;20437;-75
2022/12/08 05:42:07;;;;;;;1.60;0.93;;;2.40;99.90;;;;;;5087067;28;20471;-76
2022/12/08 05:44:33;;;;;;;2.17;1.73;;;2.00;99.90;;;;;;5070569;28;20890;-76
2022/12/08 05:46:58;;;;;;;3.78;0.93;;;2.40;99.90;;;;;;5088674;28;20757;-74
2022/12/08 05:49:24;;;;;;;2.20;0.70;;;2.30;99.90;;;;;;5086906;28;20421;-74
2022/12/08 05:51:50;;;;;;;2.40;0.70;;;2.40;99.90;;;;;;5053424;28;20402;-74
2022/12/08 05:54:15;;;;;;;1.07;0.40;;;2.50;99.90;;;;;;5088845;28;20454;-74
2022/12/08 05:56:41;;;;;;;2.30;0.40;;;2.40;99.90;;;;;;5053617;28;20422;-74
2022/12/08 05:59:07;;;;;;;5.30;1.10;;;2.20;99.90;;;;;;5061550;28;20444;-75
2022/12/08 06:01:33;;;;;;;2.00;0.93;;;2.50;99.90;;;;;;5086414;28;20410;-75
2022/12/08 06:04:00;;;;;;;2.47;1.60;;;2.50;99.90;;;;;;5085347;28;20501;-74
2022/12/08 06:06:27;;;;;;;2.50;0.80;;;2.30;99.90;;;;;;5070379;28;20497;-75
2022/12/08 06:08:52;;;;;;;3.50;0.70;;;2.10;99.90;;;;;;5086069;28;20426;-74
2022/12/08 06:11:27;;;;;;;2.30;0.75;;;2.00;99.90;;;;;;5084944;28;20410;-75
2022/12/08 06:13:54;;;;;;;3.37;0.60;;;2.40;99.90;;;;;;5086310;28;20452;-74
2022/12/08 06:16:20;;;;;;;2.03;1.30;;;2.20;99.90;;;;;;5058337;28;20461;-75
2022/12/08 06:18:46;;;;;;;3.70;1.67;;;2.20;99.90;;;;;;5086808;28;20477;-74
2022/12/08 06:21:14;;;;;;;5.00;1.77;;;2.10;99.90;;;;;;5070678;28;20409;-75
2022/12/08 06:23:40;;;;;;;4.63;1.30;;;2.40;99.90;;;;;;5087259;28;20409;-75
2022/12/08 06:26:09;;;;;;;2.63;0.97;;;2.50;99.90;;;;;;5082080;28;20894;-74
2022/12/08 06:28:36;;;;;;;2.95;0.75;;;2.20;99.90;;;;;;5084439;28;20878;-75
2022/12/08 06:31:16;;;;;;;2.20;0.80;;;2.40;99.90;;;;;;5068634;28;20438;-75
2022/12/08 06:33:42;;;;;;;3.23;1.00;;;2.60;99.90;;;;;;5067493;28;20422;-76
2022/12/08 06:36:09;;;;;;;3.88;1.30;;;2.30;99.90;;;;;;5086850;28;20784;-74
2022/12/08 06:38:34;;;;;;;1.48;0.90;;;2.50;99.90;;;;;;5086313;28;20547;-74
2022/12/08 06:41:00;;;;;;;3.28;1.20;;;2.00;99.90;;;;;;5084232;28;20903;-75
2022/12/08 06:43:26;;;;;;;3.28;1.40;;;2.20;99.90;;;;;;5081296;28;20421;-74
2022/12/08 06:45:52;;;;;;;4.07;1.17;;;2.30;99.90;;;;;;5086510;28;20466;-74
2022/12/08 06:48:18;;;;;;;3.60;1.15;;;2.10;99.90;;;;;;5085690;28;20582;-75
2022/12/08 06:50:44;;;;;;;2.93;1.20;;;1.90;99.90;;;;;;5086008;28;20414;-75
2022/12/08 06:53:11;;;;;;;3.40;1.15;;;2.20;99.90;;;;;;5069335;28;20414;-74
2022/12/08 06:55:45;;;;;;;4.10;1.00;;;1.80;99.90;;;;;;5077544;28;20935;-74
2022/12/08 06:58:12;;;;;;;6.03;1.70;;;1.70;99.90;;;;;;5085703;28;20449;-74
2022/12/08 07:00:38;;;;;;;3.03;1.27;;;2.00;99.90;;;;;;5081234;28;20422;-73
2022/12/08 07:03:06;;;;;;;3.65;1.40;;;2.00;99.90;;;;;;5087238;28;20471;-75
2022/12/08 07:05:32;;;;;;;2.28;1.20;;;1.50;99.90;;;;;;5085764;28;20421;-73
2022/12/08 07:07:57;;;;;;;4.85;1.35;;;1.90;99.90;;;;;;5085697;28;20780;-74
2022/12/08 07:10:23;;;;;;;2.53;1.10;;;1.90;99.90;;;;;;5086300;28;20428;-75
2022/12/08 07:12:49;;;;;;;5.75;0.73;;;1.70;99.90;;;;;;5073610;28;20495;-75
2022/12/08 07:15:15;;;;;;;3.63;0.70;;;1.90;99.90;;;;;;5076508;28;20453;-75
2022/12/08 07:17:40;;;;;;;3.17;0.95;;;1.60;99.90;;;;;;5085634;28;20468;-74
2022/12/08 07:20:07;;;;;;;6.07;1.63;;;1.60;99.90;;;;;;5055791;28;20457;-74
2022/12/08 07:22:32;;;;;;;2.55;1.30;;;1.80;99.90;;;;;;5074433;28;20506;-74
2022/12/08 07:24:58;;;;;;;3.80;1.63;;;1.70;99.90;;;;;;5086233;28;20406;-74
2022/12/08 07:27:23;;;;;;;4.55;1.77;;;1.50;99.90;;;;;;5084013;28;20911;-74
2022/12/08 07:29:49;;;;;;;4.00;1.27;;;1.40;99.90;;;;;;5083876;28;20479;-73
2022/12/08 07:32:15;;;;;;;3.03;1.30;;;1.20;99.90;;;;;;5042992;28;20428;-75
2022/12/08 07:34:40;;;;;;;4.33;2.03;;;1.20;99.90;;;;;;5086010;28;20671;-74
2022/12/08 07:37:06;;;;;;;4.57;1.47;;;1.60;99.90;;;;;;5085801;28;20565;-73
2022/12/08 07:39:32;;;;;;;4.30;1.53;;;1.60;99.90;;;;;;5071011;28;20535;-74
2022/12/08 07:41:58;;;;;;;3.73;1.40;;;1.20;99.90;;;;;;5083722;28;20448;-74
2022/12/08 07:44:23;;;;;;;4.93;1.60;;;1.40;99.90;;;;;;5083246;28;20456;-74
2022/12/08 07:46:49;;;;;;;5.33;1.70;;;1.60;99.90;;;;;;5082371;28;20442;-75
2022/12/08 07:49:15;;;;;;;3.77;1.13;;;1.30;99.90;;;;;;5073708;28;20447;-74
2022/12/08 07:51:40;;;;;;;6.18;1.80;;;1.10;99.90;;;;;;5085489;28;20414;-74
2022/12/08 07:54:10;;;;;;;3.05;1.15;;;1.40;99.90;;;;;;5065688;28;20490;-74
2022/12/08 07:56:36;;;;;;;4.88;1.65;;;1.20;99.90;;;;;;5083570;28;20505;-74
2022/12/08 07:59:03;;;;;;;5.18;1.40;;;1.40;99.90;;;;;;5063108;28;20501;-74
2022/12/08 08:01:31;;;;;;;4.55;1.63;;;1.30;99.90;;;;;;5085556;28;20752;-73
2022/12/08 08:04:03;;;;;;;7.23;2.07;;;1.20;99.90;;;;;;5083482;28;20694;-73
2022/12/08 08:06:30;;;;;;;3.30;1.45;;;1.60;99.90;;;;;;5067432;28;20410;-74
2022/12/08 08:08:55;;;;;;;4.30;1.40;;;1.10;99.90;;;;;;5065565;28;20429;-73
2022/12/08 08:11:21;;;;;;;8.43;2.00;;;1.40;99.90;;;;;;5068919;28;20422;-73
2022/12/08 08:13:48;;;;;;;6.38;1.30;;;1.50;99.90;;;;;;5066716;28;20912;-74
2022/12/08 08:16:14;;;;;;;5.40;1.48;;;1.40;99.90;;;;;;5065524;28;20853;-74
2022/12/08 08:18:40;;;;;;;6.07;2.20;;;1.10;99.90;;;;;;5049856;28;20464;-74
2022/12/08 08:21:08;;;;;;;6.30;1.67;;;1.20;99.90;;;;;;5059176;28;21034;-75
2022/12/08 08:23:34;;;;;;;4.43;2.25;;;1.40;99.90;;;;;;5066470;28;20434;-75
2022/12/08 08:26:02;;;;;;;23.07;2.30;;;0.90;99.90;;;;;;5062108;28;20501;-75
2022/12/08 08:28:28;;;;;;;4.15;2.05;;;1.40;99.90;;;;;;5061981;28;20430;-75
2022/12/08 08:30:54;;;;;;;4.07;1.55;;;1.10;99.90;;;;;;5072663;28;20427;-75
2022/12/08 08:33:20;;;;;;;3.30;1.13;;;1.20;99.90;;;;;;5082460;28;20780;-73
2022/12/08 08:35:45;;;;;;;8.38;2.65;;;1.10;99.90;;;;;;5085839;28;20501;-73
2022/12/08 08:38:11;;;;;;;4.25;1.20;;;1.30;99.90;;;;;;5084976;28;20430;-71
2022/12/08 08:40:37;;;;;;;4.65;1.60;;;1.40;99.90;;;;;;5077360;28;20448;-74
2022/12/08 08:43:04;;;;;;;5.75;1.40;;;1.20;99.90;;;;;;5081304;28;20427;-72
2022/12/08 08:45:30;;;;;;;6.53;2.10;;;1.10;99.90;;;;;;5081712;28;21072;-73
2022/12/08 08:47:56;;;;;;;5.07;1.60;;;1.50;99.90;;;;;;5083390;28;20421;-73
2022/12/08 08:50:22;;;;;;;5.67;2.53;;;1.50;99.90;;;;;;5083338;28;20430;-73
2022/12/08 08:52:47;;;;;;;7.57;3.17;;;1.50;99.90;;;;;;5085412;28;20395;-73
2022/12/08 08:55:13;;;;;;;3.38;1.48;;;1.60;99.90;;;;;;5071885;28;20911;-72
2022/12/08 08:57:39;;;;;;;11.82;2.55;;;1.50;99.90;;;;;;5084339;28;20575;-72
2022/12/08 09:00:06;;;;;;;5.75;1.55;;;1.40;99.90;;;;;;5083058;28;20516;-73
2022/12/08 09:02:31;;;;;;;3.92;1.25;;;1.60;99.90;;;;;;5066668;28;20433;-74
2022/12/08 09:04:57;;;;;;;5.67;1.60;;;1.80;99.90;;;;;;5069411;28;20445;-72
2022/12/08 09:07:23;;;;;;;3.83;1.33;;;1.70;99.90;;;;;;5088309;28;20737;-72
2022/12/08 09:09:48;;;;;;;4.17;1.30;;;1.80;99.90;;;;;;5082356;28;20434;-73
2022/12/08 09:12:14;;;;;;;4.23;1.60;;;1.60;99.90;;;;;;5079522;28;20423;-71
2022/12/08 09:14:40;;;;;;;7.30;1.43;;;1.70;99.90;;;;;;5080813;28;20807;-73
2022/12/08 09:17:06;;;;;;;6.30;1.55;;;1.70;99.90;;;;;;5077832;28;20433;-73
2022/12/08 09:19:32;;;;;;;6.28;2.03;;;1.90;99.90;;;;;;5090695;28;20744;-73
2022/12/08 09:21:57;;;;;;;6.30;2.50;;;2.30;99.90;;;;;;5072568;28;20829;-74
2022/12/08 09:24:23;;;;;;;7.90;2.53;;;2.30;99.90;;;;;;5090722;28;20401;-73
2022/12/08 09:26:49;;;;;;;7.40;2.17;;;2.30;99.90;;;;;;5055380;28;20486;-73
2022/12/08 09:29:16;;;;;;;11.20;3.30;;;2.50;99.90;;;;;;5084249;28;20443;-73
2022/12/08 09:31:42;;;;;;;10.52;1.90;;;2.80;99.90;;;;;;5052670;28;20887;-73
2022/12/08 09:34:09;;;;;;;5.63;2.00;;;2.70;99.90;;;;;;5054618;28;20437;-73
2022/12/08 09:36:35;;;;;;;5.80;1.50;;;2.70;99.90;;;;;;5056105;28;20432;-74
2022/12/08 09:39:01;;;;;;;4.80;2.03;;;2.40;99.90;;;;;;5070133;28;20430;-72
2022/12/08 09:41:44;;;;;;;6.68;1.45;;;2.40;99.90;;;;;;5086855;28;20420;-73
2022/12/08 09:44:38;;;;;;;5.57;1.80;;;2.50;99.90;;;;;;5083074;28;20412;-73
2022/12/08 09:47:19;;;;;;;5.10;1.40;;;2.50;99.90;;;;;;5089567;28;20421;-72
2022/12/08 09:50:00;;;;;;;7.57;1.80;;;2.40;99.90;;;;;;5086870;28;20836;-73
2022/12/08 09:52:42;;;;;;;5.18;1.30;;;2.50;99.90;;;;;;5051545;28;20465;-75
2022/12/08 09:55:18;;;;;;;6.18;1.40;;;2.70;99.90;;;;;;5071214;28;20411;-73
2022/12/08 09:57:43;;;;;;;7.35;2.35;;;2.80;99.90;;;;;;5059897;28;20425;-73
2022/12/08 10:00:11;;;;;;;4.10;1.38;;;2.80;99.90;;;;;;5087938;28;20430;-74
2022/12/08 10:02:37;;;;;;;4.80;1.30;;;2.60;99.90;;;;;;5087991;28;20414;-74
2022/12/08 10:05:02;;;;;;;7.95;1.60;;;2.70;99.90;;;;;;5090007;28;20977;-72
2022/12/08 10:07:34;;;;;;;7.35;2.33;;;2.90;99.90;;;;;;5082020;28;20423;-73
2022/12/08 10:10:02;;;;;;;7.25;1.70;;;3.10;99.90;;;;;;5071823;28;20906;-72
2022/12/08 10:12:45;;;;;;;8.07;2.42;;;2.90;99.90;;;;;;5074746;28;20437;-72
2022/12/08 10:15:34;;;;;;;7.35;2.38;;;3.00;99.90;;;;;;5082254;28;20560;-72
2022/12/08 10:18:08;;;;;;;5.07;2.10;;;3.10;99.90;;;;;;5066828;28;20455;-73
2022/12/08 10:20:40;;;;;;;8.23;2.47;;;3.20;99.90;;;;;;5085835;28;20421;-72
2022/12/08 10:23:16;;;;;;;9.02;2.45;;;3.60;99.90;;;;;;5081745;28;20418;-72
2022/12/08 10:25:45;;;;;;;9.35;2.85;;;3.30;99.90;;;;;;5088882;28;20445;-73
2022/12/08 10:28:12;;;;;;;6.60;2.10;;;3.70;99.90;;;;;;5088126;28;20955;-73
2022/12/08 10:30:38;;;;;;;5.45;1.95;;;3.60;99.90;;;;;;5089474;28;20420;-73
2022/12/08 10:33:05;;;;;;;8.75;2.20;;;3.80;99.90;;;;;;5059898;28;20486;-72
2022/12/08 10:35:53;;;;;;;5.43;1.60;;;3.70;99.90;;;;;;5083700;28;20436;-72
2022/12/08 10:38:29;;;;;;;7.57;2.17;;;3.70;99.90;;;;;;5078481;28;20726;-73
2022/12/08 10:41:10;;;;;;;9.70;2.03;;;4.10;99.90;;;;;;5055069;28;20422;-72
2022/12/08 10:43:49;;;;;;;3.67;1.08;;;4.20;99.90;;;;;;5070324;28;20418;-73
2022/12/08 10:46:21;;;;;;;5.00;1.07;;;4.20;99.90;;;;;;5084360;28;20418;-73
2022/12/08 10:48:50;;;;;;;5.13;1.40;;;4.40;99.90;;;;;;5069787;28;20430;-73
2022/12/08 10:51:25;;;;;;;6.20;1.35;;;4.40;99.90;;;;;;5075502;28;20413;-72
2022/12/08 10:53:51;;;;;;;4.07;1.30;;;4.50;99.90;;;;;;5085675;28;20426;-73
2022/12/08 10:56:17;;;;;;;7.68;1.45;;;4.50;99.90;;;;;;5088929;28;20398;-74
2022/12/08 10:58:47;;;;;;;4.45;1.38;;;4.60;99.90;;;;;;5066880;28;20527;-71
2022/12/08 11:01:35;;;;;;;5.32;1.63;;;4.70;99.90;;;;;;5070824;28;20415;-73
2022/12/08 11:04:04;;;;;;;6.57;1.23;;;4.70;99.90;;;;;;5087097;28;20828;-73
2022/12/08 11:06:36;;;;;;;4.53;1.30;;;4.80;99.90;;;;;;5093144;28;20493;-73
2022/12/08 11:09:21;;;;;;;4.97;1.60;;;4.70;99.90;;;;;;5088592;28;20426;-73
2022/12/08 11:11:50;;;;;;;6.53;1.40;;;4.50;99.90;;;;;;5087075;28;20410;-73
2022/12/08 11:14:28;;;;;;;4.75;1.55;;;4.50;99.90;;;;;;5072650;28;20426;-73
2022/12/08 11:17:04;;;;;;;6.45;1.50;;;4.40;99.90;;;;;;5070747;28;20406;-73
2022/12/08 11:19:30;;;;;;;5.93;1.30;;;4.40;99.90;;;;;;5084643;28;20436;-73
2022/12/08 11:21:56;;;;;;;5.47;2.03;;;4.30;99.90;;;;;;5070567;28;20414;-75
2022/12/08 11:24:27;;;;;;;7.10;1.42;;;4.30;99.90;;;;;;5055442;28;20484;-76
2022/12/08 11:27:01;;;;;;;7.65;2.45;;;4.30;99.90;;;;;;5049588;28;20455;-77
2022/12/08 11:29:32;;;;;;;5.72;1.70;;;4.30;99.90;;;;;;5068192;28;20441;-75
2022/12/08 11:32:12;;;;;;;7.07;2.22;;;4.30;99.90;;;;;;5088916;28;20405;-74
2022/12/08 11:34:50;;;;;;;9.77;2.63;;;4.40;99.90;;;;;;5070579;28;20406;-73
2022/12/08 11:37:38;;;;;;;4.18;1.88;;;4.30;99.90;;;;;;5070880;28;20442;-73
2022/12/08 11:40:07;;;;;;;6.03;1.85;;;4.30;99.90;;;;;;5061564;28;20473;-73
2022/12/08 11:42:44;;;;;;;7.70;1.98;;;4.10;99.90;;;;;;5054651;28;20843;-72
2022/12/08 11:45:19;;;;;;;5.63;1.70;;;4.10;99.90;;;;;;5069541;28;20417;-72
2022/12/08 11:48:05;;;;;;;6.45;2.67;;;4.00;99.90;;;;;;5085969;28;21012;-73
2022/12/08 11:51:16;;;;;;;7.25;2.30;;;3.90;99.90;;;;;;5041485;28;20420;-73
2022/12/08 11:53:50;;;;;;;6.45;1.90;;;3.70;99.90;;;;;;5035928;28;20438;-73
2022/12/08 11:56:21;;;;;;;7.30;2.40;;;3.90;99.90;;;;;;5065984;28;20422;-74
2022/12/08 11:58:52;;;;;;;6.15;1.80;;;3.90;99.90;;;;;;5084071;28;20434;-74
2022/12/08 12:01:23;;;;;;;7.85;1.73;;;3.80;99.90;;;;;;5066227;28;20747;-74
2022/12/08 12:04:24;;;;;;;4.60;1.75;;;3.70;99.90;;;;;;5050009;28;20435;-74
2022/12/08 12:07:27;;;;;;;5.37;1.23;;;3.80;99.90;;;;;;5051447;28;20886;-73
2022/12/08 12:10:04;;;;;;;6.70;1.73;;;4.20;99.90;;;;;;5062037;28;20798;-73
2022/12/08 12:12:49;;;;;;;3.90;1.42;;;4.20;99.90;;;;;;5086360;28;20434;-73
2022/12/08 12:15:58;;;;;;;5.75;1.83;;;4.40;99.90;;;;;;5078446;28;20422;-74
2022/12/08 12:18:48;;;;;;;3.92;1.35;;;4.50;99.90;;;;;;5091450;28;20414;-73
2022/12/08 12:21:43;;;;;;;6.65;1.60;;;4.60;99.90;;;;;;5062170;28;20435;-73
2022/12/08 12:24:29;;;;;;;6.35;1.63;;;4.60;99.90;;;;;;5085428;28;20413;-74
2022/12/08 12:27:18;;;;;;;8.18;1.23;;;4.70;99.90;;;;;;5064106;28;20428;-74
2022/12/08 12:29:49;;;;;;;5.90;1.75;;;4.70;99.90;;;;;;5063772;28;20517;-72
2022/12/08 12:32:15;;;;;;;5.30;1.10;;;4.90;99.90;;;;;;5085767;28;20486;-73
2022/12/08 12:34:59;;;;;;;4.35;0.90;;;4.70;99.90;;;;;;5049082;28;20407;-72
2022/12/08 12:37:36;;;;;;;5.50;0.82;;;4.60;99.90;;;;;;5063178;28;20487;-71
2022/12/08 12:40:24;;;;;;;5.55;1.00;;;4.80;99.90;;;;;;5079376;28;20465;-73
2022/12/08 12:42:55;;;;;;;5.83;1.43;;;4.90;99.90;;;;;;5051257;28;20516;-74
2022/12/08 12:45:29;;;;;;;6.47;1.20;;;5.10;99.90;;;;;;5078099;28;20417;-74
2022/12/08 12:47:54;;;;;;;3.40;0.90;;;5.20;99.90;;;;;;5083257;28;20422;-74
2022/12/08 12:50:32;;;;;;;4.67;1.30;;;5.20;99.90;;;;;;5086252;28;20467;-74
2022/12/08 12:53:05;;;;;;;5.78;1.08;;;5.30;99.90;;;;;;5061410;28;20428;-74
2022/12/08 12:55:57;;;;;;;2.47;0.80;;;5.40;99.90;;;;;;5067890;28;20434;-73
2022/12/08 12:58:29;;;;;;;4.07;0.60;;;5.40;99.90;;;;;;5047155;28;20426;-74
2022/12/08 13:01:12;;;;;;;2.45;0.57;;;5.40;99.90;;;;;;5087092;28;20412;-72
2022/12/08 13:03:50;;;;;;;2.50;0.70;;;5.40;99.90;;;;;;5072736;28;20772;-73
2022/12/08 13:06:39;;;;;;;1.83;0.50;;;5.60;99.90;;;;;;5066132;28;20403;-73
2022/12/08 13:09:06;;;;;;;4.20;0.60;;;5.50;99.90;;;;;;5076523;28;20418;-73
2022/12/08 13:11:47;;;;;;;2.17;0.68;;;5.50;99.90;;;;;;5085622;28;20523;-73
2022/12/08 13:14:29;;;;;;;2.05;0.68;;;5.40;99.90;;;;;;5051313;28;20507;-74
2022/12/08 13:16:57;;;;;;;4.80;0.68;;;5.30;99.90;;;;;;5081962;28;20413;-73
2022/12/08 13:19:24;;;;;;;3.33;1.00;;;5.30;99.90;;;;;;5062377;28;20597;-73